Haskell, Oklahoma
Current Conditions -  °F | °C
As of 7:35 PM on Saturday 25 Oct 2014 (Local Time) from KOKM Reporting Station
Clear Clear  
Wind Chill: 74°   Ceiling: Unl
Heat Index: 74°   Visibility: 10mi
Dew Point: 65°   Wind: 3mph
Humidity: 74%   Direction: 150°SSE
Pressure: 30"   Gusts: NA
Location:  35.82°N, 95.67°W
Report Text: KOKM 260035Z AUTO 15003KT 10SM CLR 23/19 A3000 RMK AO2 T02340185
Loading
Personal Weather Stations






























Interactive Weather Map
Tropical Storm Tracking
New forecast layout! Learn more

10-Day Weather Forecast

Advertisements
Track Severe Weather on mobile